Time;durP1;ratioP1;P1;durP2;ratioP2;P2;SDS_P1;SDS_P2;PMS_P1;PMS_P2;Temp;Humidity;BMP_temperature;BMP_pressure;BME280_temperature;BME280_humidity;BME280_pressure;Samples;Min_cycle;Max_cycle;Signal;HPM_P1;HPM_P2
2023/10/06 00:01:48;;;;;;;8.67;3.53;;;11.20;99.90;;;;;;5053486;28;20622;-78
2023/10/06 00:04:15;;;;;;;4.27;2.90;;;11.20;99.90;;;;;;5052421;28;20180;-78
2023/10/06 00:06:42;;;;;;;10.17;3.57;;;11.20;99.90;;;;;;5053769;28;20183;-78
2023/10/06 00:09:30;;;;;;;8.37;3.30;;;11.20;99.90;;;;;;5053743;28;20178;-77
2023/10/06 00:11:56;;;;;;;10.00;2.93;;;11.20;99.90;;;;;;5053641;28;20183;-77
2023/10/06 00:14:39;;;;;;;9.20;3.30;;;11.10;99.90;;;;;;5053668;28;20674;-77
2023/10/06 00:17:11;;;;;;;8.53;2.90;;;11.10;99.90;;;;;;5053492;28;20228;-76
2023/10/06 00:19:38;;;;;;;10.77;3.47;;;11.10;99.90;;;;;;5053215;28;20164;-77
2023/10/06 00:24:42;;;;;;;4.87;3.03;;;11.00;99.90;;;;;;5053899;28;20631;-77
2023/10/06 00:27:11;;;;;;;7.37;3.23;;;11.00;99.90;;;;;;5052713;28;20565;-78
2023/10/06 00:29:44;;;;;;;8.73;3.07;;;11.00;99.90;;;;;;5051665;28;20218;-78
2023/10/06 00:32:23;;;;;;;8.73;3.87;;;11.00;99.90;;;;;;5053798;28;20657;-78
2023/10/06 00:34:49;;;;;;;5.67;3.47;;;11.00;99.90;;;;;;5052169;28;20213;-78
2023/10/06 00:37:16;;;;;;;11.53;3.57;;;11.00;99.90;;;;;;5051828;28;20222;-78
2023/10/06 00:39:43;;;;;;;10.20;4.40;;;11.10;99.90;;;;;;5052027;28;20252;-78
2023/10/06 00:42:11;;;;;;;9.67;4.50;;;11.10;99.90;;;;;;5052872;28;20682;-77
2023/10/06 00:44:39;;;;;;;10.00;4.30;;;11.10;99.90;;;;;;5051969;28;20179;-78
2023/10/06 00:47:06;;;;;;;12.97;4.00;;;11.10;99.90;;;;;;5053028;28;20516;-77
2023/10/06 00:49:33;;;;;;;17.03;4.70;;;11.20;99.90;;;;;;5052741;28;20248;-78
2023/10/06 00:51:59;;;;;;;10.77;3.30;;;11.20;99.90;;;;;;5052934;28;20570;-77
2023/10/06 00:54:26;;;;;;;10.47;3.87;;;11.20;99.90;;;;;;5052892;28;20187;-77
2023/10/06 00:56:57;;;;;;;13.90;4.30;;;11.20;99.90;;;;;;5053655;28;20242;-78
2023/10/06 00:59:24;;;;;;;10.50;3.67;;;11.20;99.90;;;;;;5053391;28;20151;-78
2023/10/06 01:01:50;;;;;;;9.13;3.57;;;11.20;99.90;;;;;;5053154;28;20184;-77
2023/10/06 01:04:16;;;;;;;8.67;3.37;;;11.20;99.90;;;;;;5052744;28;20168;-77
2023/10/06 01:06:42;;;;;;;8.77;3.53;;;11.20;99.90;;;;;;5051394;28;20234;-78
2023/10/06 01:09:16;;;;;;;10.83;3.30;;;11.10;99.90;;;;;;5051311;28;20588;-77
2023/10/06 01:11:55;;;;;;;12.23;3.70;;;11.20;99.90;;;;;;5053254;28;20191;-78
2023/10/06 01:14:25;;;;;;;9.60;3.50;;;11.10;99.90;;;;;;5051854;28;20289;-78
2023/10/06 01:16:51;;;;;;;11.00;3.73;;;11.10;99.90;;;;;;5053114;28;20551;-78
2023/10/06 01:19:25;;;;;;;9.40;3.90;;;11.20;99.90;;;;;;5051780;28;20205;-78
2023/10/06 01:21:53;;;;;;;9.50;4.20;;;11.10;99.90;;;;;;5051965;28;20300;-78
2023/10/06 01:24:28;;;;;;;10.23;3.93;;;11.20;99.90;;;;;;5051966;28;20758;-78
2023/10/06 01:27:05;;;;;;;17.03;4.50;;;11.20;99.90;;;;;;5054537;28;20159;-77
2023/10/06 01:29:31;;;;;;;10.87;4.10;;;11.30;99.90;;;;;;5051327;28;20175;-78
2023/10/06 01:31:58;;;;;;;10.93;4.27;;;11.20;99.90;;;;;;5052825;28;20208;-78
2023/10/06 01:34:27;;;;;;;13.53;4.60;;;11.30;99.90;;;;;;5053315;28;20195;-78
2023/10/06 01:36:53;;;;;;;9.13;4.00;;;11.30;99.90;;;;;;5053227;28;20160;-78
2023/10/06 01:39:22;;;;;;;11.23;4.27;;;11.30;99.90;;;;;;5056296;28;20273;-78
2023/10/06 01:41:48;;;;;;;11.03;3.80;;;11.20;99.90;;;;;;5057004;28;20266;-78
2023/10/06 01:44:15;;;;;;;7.53;3.63;;;11.30;99.90;;;;;;5055012;28;20685;-78
2023/10/06 01:46:53;;;;;;;8.43;4.13;;;11.20;99.90;;;;;;5056671;28;20175;-78
2023/10/06 01:49:21;;;;;;;8.83;3.67;;;11.20;99.90;;;;;;5056425;28;20188;-78
2023/10/06 01:51:50;;;;;;;10.30;3.73;;;11.30;99.90;;;;;;5056152;28;20558;-78
2023/10/06 01:54:17;;;;;;;8.47;3.50;;;11.20;99.90;;;;;;5054727;28;20268;-78
2023/10/06 01:56:44;;;;;;;7.43;3.53;;;11.20;99.90;;;;;;5054653;28;20176;-78
2023/10/06 01:59:10;;;;;;;8.77;4.03;;;11.20;99.90;;;;;;5056331;28;20246;-78
2023/10/06 02:01:40;;;;;;;8.87;4.30;;;11.20;99.90;;;;;;5055964;28;20477;-78
2023/10/06 02:04:14;;;;;;;12.53;3.83;;;11.20;99.90;;;;;;5055941;28;20663;-78
2023/10/06 02:06:44;;;;;;;9.03;3.90;;;11.20;99.90;;;;;;5055953;28;20153;-78
2023/10/06 02:09:18;;;;;;;6.47;3.83;;;11.20;99.90;;;;;;5054375;28;20187;-78
2023/10/06 02:11:49;;;;;;;8.33;3.77;;;11.30;99.90;;;;;;5055914;28;20188;-78
2023/10/06 02:14:18;;;;;;;9.17;4.07;;;11.10;99.90;;;;;;5055961;28;20184;-78
2023/10/06 02:16:44;;;;;;;8.07;3.40;;;11.10;99.90;;;;;;5055652;28;20247;-78
2023/10/06 02:19:16;;;;;;;8.70;3.60;;;11.10;99.90;;;;;;5054383;28;20168;-78
2023/10/06 02:21:44;;;;;;;14.93;4.37;;;11.10;99.90;;;;;;5056001;28;20570;-78
2023/10/06 02:24:10;;;;;;;11.40;4.10;;;11.10;99.90;;;;;;5055670;28;20167;-78
2023/10/06 02:26:36;;;;;;;7.27;3.40;;;11.10;99.90;;;;;;5055406;28;20527;-78
2023/10/06 02:29:03;;;;;;;12.50;4.47;;;11.10;99.90;;;;;;5055392;28;20681;-78
2023/10/06 02:31:28;;;;;;;8.07;3.87;;;11.10;99.90;;;;;;5053968;28;20184;-78
2023/10/06 02:33:54;;;;;;;14.60;4.63;;;11.10;99.90;;;;;;5055618;28;20277;-77
2023/10/06 02:36:22;;;;;;;5.83;3.80;;;11.10;99.90;;;;;;5055377;28;20168;-78
2023/10/06 02:38:48;;;;;;;10.80;4.17;;;11.10;99.90;;;;;;5055346;28;20234;-76
2023/10/06 02:41:18;;;;;;;8.60;4.00;;;11.10;99.90;;;;;;5053414;28;20214;-78
2023/10/06 02:43:48;;;;;;;7.40;4.20;;;11.10;99.90;;;;;;5054778;28;20188;-77
2023/10/06 02:46:16;;;;;;;12.60;4.67;;;11.10;99.90;;;;;;5055248;28;20182;-78
2023/10/06 02:48:50;;;;;;;9.07;3.80;;;11.10;99.90;;;;;;5054750;28;20619;-78
2023/10/06 02:51:32;;;;;;;8.80;3.83;;;11.10;99.90;;;;;;5054939;28;20164;-77
2023/10/06 02:56:56;;;;;;;10.93;3.97;;;11.10;99.90;;;;;;5053606;28;20554;-77
2023/10/06 02:59:29;;;;;;;11.73;3.77;;;11.20;99.90;;;;;;5053437;28;20178;-77
2023/10/06 03:01:57;;;;;;;12.70;4.23;;;11.10;99.90;;;;;;5053467;28;20748;-78
2023/10/06 03:04:26;;;;;;;13.30;4.07;;;11.00;99.90;;;;;;5055076;28;20249;-78
2023/10/06 03:06:59;;;;;;;12.70;3.93;;;11.00;99.90;;;;;;5053286;28;20182;-77
2023/10/06 03:09:36;;;;;;;6.77;3.87;;;11.10;99.90;;;;;;5055070;28;20221;-78
2023/10/06 03:12:11;;;;;;;8.10;3.63;;;11.00;99.90;;;;;;5054656;28;20188;-78
2023/10/06 03:14:40;;;;;;;7.27;3.80;;;11.00;99.90;;;;;;5054757;28;20213;-78
2023/10/06 03:17:10;;;;;;;7.13;3.90;;;11.00;99.90;;;;;;5053706;28;20174;-78
2023/10/06 03:19:40;;;;;;;6.97;3.90;;;11.00;99.90;;;;;;5053225;28;20172;-78
2023/10/06 03:22:09;;;;;;;7.70;3.63;;;11.00;99.90;;;;;;5053077;28;20219;-78
2023/10/06 03:24:40;;;;;;;7.73;4.20;;;10.90;99.90;;;;;;5053173;28;20594;-78
2023/10/06 03:27:12;;;;;;;8.47;3.50;;;10.90;99.90;;;;;;5053327;28;20175;-78
2023/10/06 03:30:18;;;;;;;9.20;4.20;;;10.90;99.90;;;;;;5054279;28;20252;-78
2023/10/06 03:32:33;;;;;;;7.17;3.57;;;10.90;99.90;;;;;;5053842;28;20289;-78
2023/10/06 03:35:09;;;;;;;10.87;4.17;;;10.90;99.90;;;;;;5052766;28;20200;-78
2023/10/06 03:37:37;;;;;;;8.37;4.13;;;10.90;99.90;;;;;;5053489;28;20152;-76
2023/10/06 03:40:21;;;;;;;11.87;4.70;;;10.90;99.90;;;;;;5054283;28;20198;-77
2023/10/06 03:42:47;;;;;;;8.97;4.50;;;10.90;99.90;;;;;;5052870;28;20257;-78
2023/10/06 03:45:18;;;;;;;9.23;4.00;;;10.90;99.90;;;;;;5054042;28;20164;-78
2023/10/06 03:47:48;;;;;;;8.53;4.53;;;10.90;99.90;;;;;;5054277;28;20153;-78
2023/10/06 03:50:15;;;;;;;8.67;3.77;;;10.90;99.90;;;;;;5053963;28;20163;-78
2023/10/06 03:52:40;;;;;;;9.87;4.40;;;10.90;99.90;;;;;;5052566;28;20213;-78
2023/10/06 03:55:06;;;;;;;7.80;3.77;;;10.90;99.90;;;;;;5052434;28;20171;-78
2023/10/06 03:57:32;;;;;;;8.47;4.00;;;10.90;99.90;;;;;;5053765;28;20229;-77
2023/10/06 03:59:58;;;;;;;9.93;4.17;;;10.90;99.90;;;;;;5054502;28;20168;-78
2023/10/06 04:02:38;;;;;;;8.30;3.93;;;10.90;99.90;;;;;;5054283;28;20701;-77
2023/10/06 04:05:07;;;;;;;10.13;4.07;;;10.90;99.90;;;;;;5053854;28;20189;-77
2023/10/06 04:07:33;;;;;;;13.17;4.03;;;10.90;99.90;;;;;;5053721;28;20168;-77
2023/10/06 04:09:58;;;;;;;7.33;3.93;;;10.90;99.90;;;;;;5052630;28;20228;-78
2023/10/06 04:12:25;;;;;;;15.63;4.23;;;10.90;99.90;;;;;;5052066;28;20260;-78
2023/10/06 04:14:53;;;;;;;10.00;4.67;;;10.90;99.90;;;;;;5052657;28;20194;-77
2023/10/06 04:17:21;;;;;;;9.93;4.90;;;10.90;99.90;;;;;;5053412;28;20164;-78
2023/10/06 04:19:48;;;;;;;8.10;4.30;;;10.90;99.90;;;;;;5053450;28;20164;-78
2023/10/06 04:22:14;;;;;;;12.37;4.77;;;10.90;99.90;;;;;;5052998;28;20184;-78
2023/10/06 04:24:40;;;;;;;11.23;4.37;;;10.90;99.90;;;;;;5053533;28;20186;-78
2023/10/06 04:27:05;;;;;;;6.17;4.30;;;10.90;99.90;;;;;;5053361;28;20245;-77
2023/10/06 04:29:35;;;;;;;10.63;4.40;;;10.90;99.90;;;;;;5051513;28;20191;-77
2023/10/06 04:32:01;;;;;;;8.87;4.00;;;10.90;99.90;;;;;;5055525;28;20207;-78
2023/10/06 04:34:27;;;;;;;10.90;4.33;;;10.90;99.90;;;;;;5054993;28;20195;-78
2023/10/06 04:36:56;;;;;;;8.90;4.33;;;10.90;99.90;;;;;;5056625;28;20174;-77
2023/10/06 04:39:22;;;;;;;10.00;4.10;;;10.90;99.90;;;;;;5057102;28;20658;-78
2023/10/06 04:41:47;;;;;;;12.43;4.00;;;11.00;99.90;;;;;;5057383;28;20188;-78
2023/10/06 04:44:14;;;;;;;10.00;4.50;;;10.90;99.90;;;;;;5055106;28;20262;-78
2023/10/06 04:46:39;;;;;;;11.67;4.47;;;11.00;99.90;;;;;;5055227;28;20648;-78
2023/10/06 04:49:07;;;;;;;7.33;3.90;;;10.90;99.90;;;;;;5057582;28;20174;-78
2023/10/06 04:51:34;;;;;;;10.83;4.40;;;10.90;99.90;;;;;;5056225;28;20266;-77
2023/10/06 04:54:00;;;;;;;8.80;4.10;;;10.90;99.90;;;;;;5058300;28;20187;-77
2023/10/06 04:56:32;;;;;;;6.63;3.90;;;11.00;99.90;;;;;;5058244;28;20580;-78
2023/10/06 04:58:57;;;;;;;6.40;4.17;;;11.00;99.90;;;;;;5055337;28;20227;-78
2023/10/06 05:01:23;;;;;;;6.97;3.90;;;11.00;99.90;;;;;;5055975;28;20259;-78
2023/10/06 05:03:48;;;;;;;7.63;4.30;;;10.90;99.90;;;;;;5054176;28;20179;-77
2023/10/06 05:06:16;;;;;;;8.73;4.27;;;10.90;99.90;;;;;;5055521;28;20246;-76
2023/10/06 05:08:44;;;;;;;7.33;4.10;;;10.90;99.90;;;;;;5053161;28;20180;-77
2023/10/06 05:11:12;;;;;;;8.60;4.27;;;11.00;99.90;;;;;;5053239;28;20672;-76
2023/10/06 05:13:37;;;;;;;9.20;4.13;;;10.90;99.90;;;;;;5055645;28;20196;-78
2023/10/06 05:16:03;;;;;;;11.40;4.00;;;10.90;99.90;;;;;;5055462;28;20179;-77
2023/10/06 05:18:29;;;;;;;9.00;4.23;;;10.90;99.90;;;;;;5056994;28;20160;-78
2023/10/06 05:20:55;;;;;;;9.10;3.90;;;10.90;99.90;;;;;;5057441;28;20206;-77
2023/10/06 05:23:20;;;;;;;6.23;4.23;;;11.00;99.90;;;;;;5057045;28;20666;-77
2023/10/06 05:25:46;;;;;;;9.90;3.90;;;11.00;99.90;;;;;;5055302;28;20561;-78
2023/10/06 05:28:16;;;;;;;11.53;4.23;;;11.00;99.90;;;;;;5056574;28;20180;-78
2023/10/06 05:30:43;;;;;;;8.17;3.97;;;11.00;99.90;;;;;;5056891;28;20219;-78
2023/10/06 05:33:09;;;;;;;11.27;4.10;;;11.00;99.90;;;;;;5055586;28;20282;-78
2023/10/06 05:35:38;;;;;;;9.47;4.40;;;11.00;99.90;;;;;;5055396;28;20176;-78
2023/10/06 05:38:13;;;;;;;10.93;5.20;;;11.00;99.90;;;;;;5055085;28;20176;-78
2023/10/06 05:40:46;;;;;;;13.20;4.90;;;11.00;99.90;;;;;;5055512;28;20233;-77
2023/10/06 05:43:12;;;;;;;11.80;4.10;;;11.00;99.90;;;;;;5056928;28;20270;-78
2023/10/06 05:45:42;;;;;;;7.97;4.20;;;11.00;99.90;;;;;;5057148;28;20171;-78
2023/10/06 05:48:12;;;;;;;10.50;5.07;;;11.00;99.90;;;;;;5056577;28;20177;-78
2023/10/06 05:50:40;;;;;;;9.50;5.33;;;11.00;99.90;;;;;;5056441;28;20179;-77
2023/10/06 05:53:08;;;;;;;10.20;5.40;;;11.00;99.90;;;;;;5054739;28;20290;-78
2023/10/06 05:55:38;;;;;;;11.27;4.40;;;11.00;99.90;;;;;;5056331;28;20459;-78
2023/10/06 05:58:08;;;;;;;10.90;4.63;;;11.10;99.90;;;;;;5056554;28;20588;-77
2023/10/06 06:00:35;;;;;;;9.83;4.13;;;11.00;99.90;;;;;;5057263;28;20156;-78
2023/10/06 06:03:09;;;;;;;11.20;4.43;;;11.10;99.90;;;;;;5056441;28;20195;-78
2023/10/06 06:05:35;;;;;;;9.03;4.43;;;11.10;99.90;;;;;;5058105;28;20198;-78
2023/10/06 06:08:03;;;;;;;9.70;5.03;;;11.10;99.90;;;;;;5057088;28;20232;-77
2023/10/06 06:10:29;;;;;;;12.83;4.70;;;11.10;99.90;;;;;;5057700;28;20175;-77
2023/10/06 06:13:00;;;;;;;10.63;4.77;;;11.10;99.90;;;;;;5058034;28;20211;-76
2023/10/06 06:15:26;;;;;;;9.50;4.80;;;11.10;99.90;;;;;;5061464;28;20152;-77
2023/10/06 06:17:53;;;;;;;12.27;4.73;;;11.20;99.90;;;;;;5060552;28;20241;-77
2023/10/06 06:20:21;;;;;;;11.20;4.80;;;11.20;99.90;;;;;;5057076;28;20168;-77
2023/10/06 06:22:53;;;;;;;9.37;4.60;;;11.20;99.90;;;;;;5054726;28;20211;-76
2023/10/06 06:25:28;;;;;;;12.27;5.27;;;11.10;99.90;;;;;;5053376;28;20693;-76
2023/10/06 06:27:55;;;;;;;12.20;5.23;;;11.20;99.90;;;;;;5055101;28;20678;-76
2023/10/06 06:30:23;;;;;;;11.07;5.53;;;11.20;99.90;;;;;;5053202;28;20196;-76
2023/10/06 06:32:49;;;;;;;12.10;5.23;;;11.30;99.90;;;;;;5054602;28;20191;-76
2023/10/06 06:35:19;;;;;;;11.47;4.77;;;11.30;99.90;;;;;;5054464;28;20605;-76
2023/10/06 06:37:50;;;;;;;16.30;4.73;;;11.40;99.90;;;;;;5053115;28;20196;-76
2023/10/06 06:40:19;;;;;;;10.20;5.03;;;11.40;99.90;;;;;;5054464;28;20187;-76
2023/10/06 06:42:47;;;;;;;15.03;5.77;;;11.40;99.90;;;;;;5054534;28;20196;-76
2023/10/06 06:45:13;;;;;;;12.60;5.10;;;11.50;99.90;;;;;;5054561;28;20168;-76
2023/10/06 06:47:41;;;;;;;9.37;4.73;;;11.60;99.90;;;;;;5053227;28;20549;-77
2023/10/06 06:50:15;;;;;;;12.03;4.80;;;11.60;99.90;;;;;;5054300;28;20163;-76
2023/10/06 06:52:41;;;;;;;9.80;5.27;;;11.60;99.90;;;;;;5054081;28;20188;-76
2023/10/06 06:55:13;;;;;;;11.87;5.07;;;11.70;99.90;;;;;;5053800;28;20250;-76
2023/10/06 06:57:41;;;;;;;11.17;5.37;;;11.70;99.90;;;;;;5054325;28;20168;-75
2023/10/06 07:00:15;;;;;;;13.40;5.17;;;11.70;99.90;;;;;;5052709;28;20174;-76
2023/10/06 07:02:52;;;;;;;11.90;5.00;;;11.80;99.90;;;;;;5053928;28;20197;-76
2023/10/06 07:05:19;;;;;;;12.13;4.67;;;11.80;99.90;;;;;;5054197;28;20148;-76
2023/10/06 07:07:46;;;;;;;9.40;4.63;;;11.80;99.90;;;;;;5052763;28;20245;-76
2023/10/06 07:10:19;;;;;;;11.70;4.83;;;11.90;99.90;;;;;;5052479;28;20674;-76
2023/10/06 07:12:47;;;;;;;11.57;4.67;;;11.90;99.90;;;;;;5052287;28;20195;-76
2023/10/06 07:15:20;;;;;;;12.47;4.73;;;12.00;99.90;;;;;;5052412;28;20260;-76
2023/10/06 07:17:51;;;;;;;10.17;4.90;;;12.00;99.90;;;;;;5052375;28;20255;-76
2023/10/06 07:20:24;;;;;;;10.37;4.87;;;12.00;99.90;;;;;;5052272;28;20242;-76
2023/10/06 07:22:54;;;;;;;12.73;4.73;;;12.10;99.90;;;;;;5052175;28;20222;-76
2023/10/06 07:25:20;;;;;;;10.33;4.83;;;12.00;99.90;;;;;;5052259;28;20164;-76
2023/10/06 07:27:55;;;;;;;9.50;5.00;;;12.10;99.90;;;;;;5052362;28;20175;-76
2023/10/06 07:30:25;;;;;;;12.67;5.10;;;12.10;99.90;;;;;;5051893;28;20190;-75
2023/10/06 07:32:52;;;;;;;9.27;4.77;;;12.10;99.90;;;;;;5051928;28;20196;-76
2023/10/06 07:35:20;;;;;;;19.30;5.27;;;12.20;99.90;;;;;;5051450;28;20254;-76
2023/10/06 07:37:49;;;;;;;11.40;4.60;;;12.20;99.90;;;;;;5051952;28;20176;-76
2023/10/06 07:40:21;;;;;;;8.03;4.47;;;12.30;99.90;;;;;;5051917;28;20175;-76
2023/10/06 07:42:49;;;;;;;13.50;5.23;;;12.40;99.90;;;;;;5051822;28;20188;-75
2023/10/06 07:45:16;;;;;;;12.00;5.80;;;12.30;99.90;;;;;;5051795;28;20555;-76
2023/10/06 07:47:42;;;;;;;16.73;5.00;;;12.40;99.90;;;;;;5051746;28;20179;-75
2023/10/06 07:50:09;;;;;;;9.30;5.13;;;12.40;99.90;;;;;;5051879;28;20168;-76
2023/10/06 07:52:38;;;;;;;11.33;4.90;;;12.40;99.90;;;;;;5051904;28;20211;-76
2023/10/06 07:55:05;;;;;;;10.77;4.37;;;12.50;99.90;;;;;;5051560;28;20183;-76
2023/10/06 07:57:33;;;;;;;14.57;5.20;;;12.50;99.90;;;;;;5051634;28;20182;-76
2023/10/06 08:00:06;;;;;;;13.47;5.20;;;12.50;99.90;;;;;;5051515;28;20179;-76
2023/10/06 08:02:32;;;;;;;9.33;4.07;;;12.60;99.90;;;;;;5051448;28;20196;-76
2023/10/06 08:04:59;;;;;;;10.23;3.87;;;12.60;99.90;;;;;;5051524;28;20662;-76
2023/10/06 08:07:27;;;;;;;11.97;3.87;;;12.70;99.90;;;;;;5051437;28;20274;-76
2023/10/06 08:10:00;;;;;;;14.33;3.77;;;12.70;99.90;;;;;;5051386;28;20263;-76
2023/10/06 08:12:27;;;;;;;12.17;3.87;;;12.70;99.90;;;;;;5051263;28;20199;-76
2023/10/06 08:14:54;;;;;;;15.03;3.80;;;12.80;99.90;;;;;;5051242;28;20230;-76
2023/10/06 08:17:20;;;;;;;10.77;3.60;;;12.80;99.90;;;;;;5051248;28;20184;-76
2023/10/06 08:19:46;;;;;;;11.60;3.87;;;12.90;99.90;;;;;;5051124;28;20221;-76
2023/10/06 08:22:13;;;;;;;11.87;3.87;;;13.00;99.90;;;;;;5051065;28;20199;-76
2023/10/06 08:24:38;;;;;;;11.43;3.77;;;13.00;99.90;;;;;;5051544;28;20183;-76
2023/10/06 08:27:06;;;;;;;8.73;3.43;;;13.10;99.90;;;;;;5051195;28;20178;-76
2023/10/06 08:29:33;;;;;;;8.23;3.50;;;13.20;99.90;;;;;;5052127;28;20293;-77
2023/10/06 08:31:59;;;;;;;7.60;3.53;;;13.20;99.90;;;;;;5050943;28;20285;-76
2023/10/06 08:34:25;;;;;;;6.40;2.87;;;13.30;99.90;;;;;;5052345;28;20262;-76
2023/10/06 08:36:51;;;;;;;9.83;3.23;;;13.40;99.90;;;;;;5050885;28;20182;-76
2023/10/06 08:39:17;;;;;;;9.93;3.70;;;13.40;99.90;;;;;;5050846;28;20266;-76
2023/10/06 08:41:45;;;;;;;7.10;3.20;;;13.50;99.90;;;;;;5050812;28;20206;-76
2023/10/06 08:44:12;;;;;;;8.53;3.53;;;13.60;99.90;;;;;;5051571;28;20182;-76
2023/10/06 08:46:44;;;;;;;10.83;3.27;;;13.70;99.90;;;;;;5052074;28;20175;-76
2023/10/06 08:49:19;;;;;;;13.50;3.43;;;13.90;99.90;;;;;;5050435;28;20259;-75
2023/10/06 08:51:49;;;;;;;10.30;3.27;;;13.90;99.90;;;;;;5050738;28;20757;-75
2023/10/06 08:54:16;;;;;;;13.47;3.47;;;14.00;99.90;;;;;;5051950;28;20263;-76
2023/10/06 08:56:41;;;;;;;10.77;3.30;;;14.00;99.90;;;;;;5052004;28;20175;-76
2023/10/06 08:59:07;;;;;;;9.37;3.17;;;14.10;99.90;;;;;;5052013;28;20172;-76
2023/10/06 09:01:35;;;;;;;7.03;2.73;;;14.20;99.90;;;;;;5050617;28;20171;-77
2023/10/06 09:04:03;;;;;;;11.10;3.50;;;14.30;99.90;;;;;;5052001;28;20233;-76
2023/10/06 09:06:29;;;;;;;10.73;3.40;;;14.50;99.90;;;;;;5051999;28;20174;-76
2023/10/06 09:08:55;;;;;;;11.20;3.03;;;14.60;99.90;;;;;;5051867;28;20171;-76
2023/10/06 09:11:41;;;;;;;11.93;3.90;;;14.60;99.90;;;;;;5050555;28;20184;-76
2023/10/06 09:14:07;;;;;;;6.90;3.30;;;14.80;99.90;;;;;;5051027;28;20202;-77
2023/10/06 09:16:49;;;;;;;9.77;3.20;;;14.90;99.90;;;;;;5050536;28;20167;-76
2023/10/06 09:19:15;;;;;;;8.77;2.90;;;15.00;99.90;;;;;;5051861;28;20168;-76
2023/10/06 09:22:00;;;;;;;8.70;2.77;;;15.10;99.90;;;;;;5051761;28;20167;-75
2023/10/06 09:24:27;;;;;;;10.73;3.23;;;15.20;99.90;;;;;;5051742;28;20185;-77
2023/10/06 09:26:53;;;;;;;8.83;3.13;;;15.30;99.90;;;;;;5050446;28;20262;-76
2023/10/06 09:29:32;;;;;;;12.27;3.10;;;15.40;99.90;;;;;;5051893;28;20204;-76
2023/10/06 09:31:58;;;;;;;9.63;3.13;;;15.50;99.90;;;;;;5051702;28;20285;-76
2023/10/06 09:34:24;;;;;;;8.37;3.03;;;15.60;99.90;;;;;;5051761;28;20282;-79
2023/10/06 09:36:51;;;;;;;8.60;2.80;;;15.60;99.90;;;;;;5050685;28;20263;-76
2023/10/06 09:39:26;;;;;;;9.53;3.23;;;15.70;99.90;;;;;;5050671;28;20595;-76
2023/10/06 09:41:54;;;;;;;8.10;2.80;;;15.80;1.00;;;;;;5050026;28;20267;-77
2023/10/06 09:44:22;;;;;;;9.37;3.47;;;15.80;1.00;;;;;;5050730;28;20168;-76
2023/10/06 09:46:53;;;;;;;7.07;2.80;;;15.90;23.60;;;;;;5051550;28;20707;-76
2023/10/06 09:49:21;;;;;;;13.13;2.80;;;16.00;1.00;;;;;;5051549;28;20636;-76
2023/10/06 09:51:50;;;;;;;10.00;2.97;;;16.10;99.90;;;;;;5050046;28;20637;-76
2023/10/06 09:54:16;;;;;;;6.90;2.77;;;16.20;99.90;;;;;;5051380;28;20199;-76
2023/10/06 09:56:42;;;;;;;8.53;2.60;;;16.20;1.00;;;;;;5050136;28;20168;-76
2023/10/06 09:59:12;;;;;;;7.63;3.17;;;16.40;1.00;;;;;;5052900;28;20254;-76
2023/10/06 10:01:42;;;;;;;7.00;3.00;;;16.60;1.00;;;;;;5055147;28;20166;-76
2023/10/06 10:04:11;;;;;;;11.67;3.20;;;16.60;99.90;;;;;;5055427;28;20589;-77
2023/10/06 10:06:43;;;;;;;9.83;3.07;;;16.70;99.90;;;;;;5053773;28;20180;-76
2023/10/06 10:09:15;;;;;;;7.87;2.70;;;16.70;1.00;;;;;;5055135;28;20156;-76
2023/10/06 10:11:46;;;;;;;7.40;3.30;;;16.70;1.00;;;;;;5054537;28;20639;-73
2023/10/06 10:14:49;;;;;;;10.17;2.87;;;16.70;1.00;;;;;;5054478;28;20175;-76
2023/10/06 10:17:47;;;;;;;5.50;2.80;;;16.70;99.90;;;;;;5053610;28;20708;-76
2023/10/06 10:20:15;;;;;;;9.03;3.10;;;16.70;1.00;;;;;;5055127;28;20156;-76
2023/10/06 10:22:42;;;;;;;6.47;2.70;;;16.80;1.00;;;;;;5054026;28;20276;-76
2023/10/06 10:25:08;;;;;;;9.37;3.00;;;16.80;99.90;;;;;;5054832;28;20781;-76
2023/10/06 10:27:37;;;;;;;8.73;3.07;;;16.90;99.90;;;;;;5053396;28;20210;-76
2023/10/06 10:30:09;;;;;;;9.23;3.07;;;16.90;1.00;;;;;;5054490;28;20704;-76
2023/10/06 10:32:39;;;;;;;8.07;2.90;;;17.00;99.90;;;;;;5054585;28;20321;-76
2023/10/06 10:35:12;;;;;;;9.33;3.00;;;17.10;99.90;;;;;;5053257;28;20191;-76
2023/10/06 10:37:56;;;;;;;6.27;2.87;;;17.10;99.90;;;;;;5053272;28;20256;-76
2023/10/06 10:40:27;;;;;;;11.13;2.80;;;17.40;73.80;;;;;;5053061;28;20175;-76
2023/10/06 10:43:06;;;;;;;8.63;2.60;;;17.40;1.00;;;;;;5054274;28;20249;-76
2023/10/06 10:45:43;;;;;;;10.10;2.80;;;17.40;99.90;;;;;;5053002;28;20175;-77
2023/10/06 10:48:13;;;;;;;7.57;2.80;;;17.50;1.00;;;;;;5054593;28;20152;-76
2023/10/06 10:51:00;;;;;;;8.57;2.93;;;17.50;99.90;;;;;;5054468;28;20650;-76
2023/10/06 10:53:36;;;;;;;10.50;3.17;;;17.70;1.00;;;;;;5052692;28;20199;-76
2023/10/06 10:56:02;;;;;;;10.20;3.03;;;17.70;1.00;;;;;;5054437;28;20671;-76
2023/10/06 10:58:47;;;;;;;10.67;3.00;;;17.70;1.00;;;;;;5054423;28;20203;-75
2023/10/06 11:01:23;;;;;;;11.30;3.27;;;17.70;1.00;;;;;;5054239;28;20630;-76
2023/10/06 11:04:52;;;;;;;5.77;2.63;;;17.70;26.10;;;;;;5054344;28;20182;-76
2023/10/06 11:07:10;;;;;;;10.30;3.00;;;17.70;1.00;;;;;;5053770;28;20237;-76
2023/10/06 11:09:46;;;;;;;9.33;3.03;;;17.90;1.00;;;;;;5054032;28;20184;-75
2023/10/06 11:12:21;;;;;;;8.83;3.00;;;17.80;1.00;;;;;;5053200;28;20183;-76
2023/10/06 11:14:49;;;;;;;5.43;2.30;;;17.90;1.00;;;;;;5052525;28;20217;-76
2023/10/06 11:17:20;;;;;;;8.27;3.03;;;17.90;1.00;;;;;;5054047;28;20164;-76
2023/10/06 11:19:46;;;;;;;5.30;2.17;;;18.10;1.00;;;;;;5053885;28;20152;-76
2023/10/06 11:22:19;;;;;;;10.57;2.87;;;18.00;1.00;;;;;;5052246;28;20682;-76
2023/10/06 11:24:46;;;;;;;7.80;2.73;;;18.10;1.00;;;;;;5053803;28;20156;-76
2023/10/06 11:27:12;;;;;;;7.27;2.80;;;18.20;1.00;;;;;;5053549;28;20206;-76
2023/10/06 11:29:37;;;;;;;11.67;2.63;;;18.20;1.00;;;;;;5053357;28;20675;-76
2023/10/06 11:32:04;;;;;;;10.43;3.10;;;18.30;1.00;;;;;;5053613;28;20282;-76
2023/10/06 11:34:29;;;;;;;7.53;2.80;;;18.40;1.00;;;;;;5052522;28;20282;-76
2023/10/06 11:36:59;;;;;;;6.33;2.80;;;18.40;1.00;;;;;;5053360;28;20206;-76
2023/10/06 11:39:32;;;;;;;8.47;3.17;;;18.50;1.00;;;;;;5052071;28;20179;-76
2023/10/06 11:42:25;;;;;;;10.30;3.13;;;18.60;1.00;;;;;;5053308;28;20192;-76
2023/10/06 11:44:54;;;;;;;9.63;3.23;;;18.60;99.90;;;;;;5053517;28;20207;-76
2023/10/06 11:47:21;;;;;;;9.20;3.43;;;18.70;1.00;;;;;;5051984;28;20182;-76
2023/10/06 11:49:56;;;;;;;7.90;3.40;;;18.70;1.00;;;;;;5053418;28;20180;-75
2023/10/06 11:52:23;;;;;;;8.80;2.77;;;18.80;99.90;;;;;;5051579;28;20669;-77
2023/10/06 11:54:49;;;;;;;7.33;3.00;;;19.00;99.90;;;;;;5052113;28;20203;-76
2023/10/06 11:57:15;;;;;;;8.80;3.30;;;19.00;99.90;;;;;;5053036;28;20193;-76
2023/10/06 11:59:51;;;;;;;8.40;3.20;;;19.00;99.90;;;;;;5053191;28;20431;-76
2023/10/06 12:02:17;;;;;;;8.10;3.00;;;19.00;99.90;;;;;;5051579;28;20191;-77
2023/10/06 12:04:43;;;;;;;14.10;3.90;;;19.10;1.00;;;;;;5052927;28;20301;-76
2023/10/06 12:07:25;;;;;;;11.83;3.40;;;19.10;99.90;;;;;;5051576;28;20175;-76
2023/10/06 12:09:52;;;;;;;8.83;3.00;;;19.00;99.90;;;;;;5053023;28;20178;-76
2023/10/06 12:12:17;;;;;;;7.83;3.07;;;19.10;99.90;;;;;;5051341;28;20701;-76
2023/10/06 12:14:44;;;;;;;7.67;3.20;;;19.20;99.90;;;;;;5051324;28;20239;-77
2023/10/06 12:17:14;;;;;;;6.93;3.20;;;19.20;1.00;;;;;;5052884;28;20175;-77
2023/10/06 12:19:42;;;;;;;6.73;2.97;;;19.30;99.90;;;;;;5051437;28;20194;-76
2023/10/06 12:22:08;;;;;;;11.23;3.17;;;19.30;99.90;;;;;;5052715;28;20233;-76
2023/10/06 12:24:33;;;;;;;8.77;3.00;;;19.20;99.90;;;;;;5052434;28;20195;-76
2023/10/06 12:26:59;;;;;;;9.53;2.87;;;19.30;99.90;;;;;;5052756;28;20184;-76
2023/10/06 12:29:25;;;;;;;8.93;2.60;;;19.30;99.90;;;;;;5052277;28;20203;-77
2023/10/06 12:31:51;;;;;;;6.87;2.80;;;19.30;99.90;;;;;;5052549;28;20214;-77
2023/10/06 12:34:16;;;;;;;6.17;2.77;;;19.30;99.90;;;;;;5052328;28;20213;-75
2023/10/06 12:36:47;;;;;;;9.40;3.57;;;19.30;99.90;;;;;;5050992;28;20190;-76
2023/10/06 12:39:21;;;;;;;7.07;3.17;;;19.30;99.90;;;;;;5052230;28;20152;-76
2023/10/06 12:41:46;;;;;;;7.13;3.00;;;19.20;99.90;;;;;;5052511;28;20261;-76
2023/10/06 12:44:16;;;;;;;9.93;3.57;;;19.20;99.90;;;;;;5052400;28;20665;-76
2023/10/06 12:46:41;;;;;;;8.77;3.33;;;19.10;99.90;;;;;;5052183;28;20210;-76
2023/10/06 12:49:07;;;;;;;10.27;3.37;;;19.10;1.00;;;;;;5052348;28;20551;-76
2023/10/06 12:51:34;;;;;;;8.43;3.27;;;19.00;1.00;;;;;;5052273;28;20175;-76
2023/10/06 12:54:00;;;;;;;8.50;3.13;;;19.00;1.00;;;;;;5050722;28;20254;-76
2023/10/06 12:56:28;;;;;;;6.00;2.93;;;19.00;1.00;;;;;;5052271;28;20195;-76
2023/10/06 12:58:56;;;;;;;9.17;2.97;;;19.00;1.00;;;;;;5051975;28;20172;-76
2023/10/06 13:01:25;;;;;;;12.33;2.80;;;19.00;1.00;;;;;;5052000;28;20249;-76